Time;durP1;ratioP1;P1;durP2;ratioP2;P2;SDS_P1;SDS_P2;PMS_P1;PMS_P2;Temp;Humidity;BMP_temperature;BMP_pressure;BME280_temperature;BME280_humidity;BME280_pressure;Samples;Min_cycle;Max_cycle;Signal;HPM_P1;HPM_P2
2024/02/22 00:00:21;;;;;;;85.80;42.60;;;;;;;9.84;59.11;100316.56;107971;1254;72481;-67
2024/02/22 00:02:49;;;;;;;82.20;42.60;;;;;;;9.75;59.51;100311.23;107938;1254;60990;-68
2024/02/22 00:05:16;;;;;;;71.50;37.60;;;;;;;9.81;59.29;100307.52;107864;1254;60275;-65
2024/02/22 00:07:44;;;;;;;74.60;38.80;;;;;;;9.84;59.39;100297.95;107975;1254;72713;-65
2024/02/22 00:10:12;;;;;;;74.50;39.60;;;;;;;9.94;59.26;100297.31;108006;1254;70852;-67
2024/02/22 00:12:41;;;;;;;82.30;42.50;;;;;;;10.04;59.18;100291.73;107967;1256;71454;-67
2024/02/22 00:15:10;;;;;;;92.50;44.30;;;;;;;10.05;59.09;100294.67;107983;1254;60445;-67
2024/02/22 00:17:38;;;;;;;74.70;39.30;;;;;;;9.92;59.22;100300.34;107986;1254;60423;-67
2024/02/22 00:20:07;;;;;;;81.00;41.00;;;;;;;9.81;59.58;100308.06;108000;1254;72591;-66
2024/02/22 00:22:34;;;;;;;80.40;38.30;;;;;;;9.75;59.38;100312.27;108011;1254;72273;-67
2024/02/22 00:25:03;;;;;;;90.30;43.90;;;;;;;9.61;59.49;100302.54;108025;1254;73338;-67
2024/02/22 00:27:31;;;;;;;84.40;41.30;;;;;;;9.60;59.49;100286.28;108017;1257;59927;-66
2024/02/22 00:29:59;;;;;;;69.10;36.70;;;;;;;9.64;59.42;100290.00;108073;1253;60434;-65
2024/02/22 00:32:26;;;;;;;82.60;41.50;;;;;;;9.58;59.78;100304.92;108032;1254;72794;-66
2024/02/22 00:34:54;;;;;;;79.20;39.60;;;;;;;9.47;60.15;100296.65;108029;1253;68928;-66
2024/02/22 00:37:22;;;;;;;78.10;39.60;;;;;;;9.54;60.03;100297.33;108032;1254;72710;-67
2024/02/22 00:39:51;;;;;;;78.50;41.10;;;;;;;9.54;60.03;100295.56;108006;1254;60839;-66
2024/02/22 00:42:20;;;;;;;78.00;37.90;;;;;;;9.52;60.14;100293.34;108039;1254;60534;-66
2024/02/22 00:44:47;;;;;;;68.20;35.10;;;;;;;9.59;59.93;100287.00;108068;1253;72195;-67
2024/02/22 00:47:18;;;;;;;68.40;35.80;;;;;;;9.61;60.00;100287.80;108169;1253;68989;-67
2024/02/22 00:49:45;;;;;;;65.70;32.70;;;;;;;9.54;60.03;100285.73;108116;1253;73149;-66
2024/02/22 00:52:13;;;;;;;79.20;39.30;;;;;;;9.50;60.26;100284.84;108225;1253;60839;-66
2024/02/22 00:54:41;;;;;;;75.00;37.90;;;;;;;9.54;60.16;100286.98;108087;1254;60441;-66
2024/02/22 00:57:09;;;;;;;68.20;36.50;;;;;;;9.56;60.12;100288.68;108148;1253;73898;-65
2024/02/22 00:59:36;;;;;;;76.70;38.10;;;;;;;9.59;60.03;100283.14;108073;1254;68899;-66
2024/02/22 01:02:04;;;;;;;80.80;41.20;;;;;;;9.65;59.87;100285.08;108174;1253;72716;-66
2024/02/22 01:04:32;;;;;;;80.70;41.10;;;;;;;9.65;59.70;100280.51;107989;1254;60447;-66
2024/02/22 01:06:59;;;;;;;84.60;43.70;;;;;;;9.60;59.84;100282.77;108050;1253;60226;-65
2024/02/22 01:09:27;;;;;;;68.70;35.30;;;;;;;9.66;59.75;100276.42;108151;1253;72612;-69
2024/02/22 01:11:54;;;;;;;91.80;44.10;;;;;;;9.62;59.69;100274.10;108111;1253;69944;-66
2024/02/22 01:14:22;;;;;;;87.30;44.60;;;;;;;9.65;59.61;100269.63;108127;1253;72507;-66
2024/02/22 01:16:50;;;;;;;64.60;33.50;;;;;;;9.69;59.52;100267.77;108147;1254;60925;-65
2024/02/22 01:19:18;;;;;;;87.20;42.50;;;;;;;9.67;59.58;100262.20;108183;1253;59291;-64
2024/02/22 01:21:46;;;;;;;63.00;33.20;;;;;;;9.68;59.51;100257.80;108148;1253;72537;-64
2024/02/22 01:24:14;;;;;;;77.00;39.60;;;;;;;9.69;59.48;100254.77;108105;1253;72643;-65
2024/02/22 01:26:41;;;;;;;75.70;40.00;;;;;;;9.68;59.42;100252.54;108036;1253;71758;-65
2024/02/22 01:29:09;;;;;;;60.80;32.10;;;;;;;9.63;59.46;100254.81;108142;1253;60801;-64
2024/02/22 01:31:36;;;;;;;81.80;40.30;;;;;;;9.60;59.57;100253.84;108106;1253;60381;-65
2024/02/22 01:34:04;;;;;;;63.20;32.80;;;;;;;9.64;59.47;100247.92;108091;1253;74299;-66
2024/02/22 01:36:32;;;;;;;78.50;40.20;;;;;;;9.61;59.42;100257.83;108084;1253;68714;-66
2024/02/22 01:39:03;;;;;;;84.40;41.20;;;;;;;9.62;59.20;100255.34;108095;1252;71287;-66
2024/02/22 01:41:31;;;;;;;75.80;38.10;;;;;;;9.61;59.04;100260.66;108069;1254;61026;-67
2024/02/22 01:43:58;;;;;;;87.20;43.90;;;;;;;9.43;59.17;100259.60;108130;1254;59681;-65
2024/02/22 01:46:26;;;;;;;83.00;42.40;;;;;;;9.37;59.33;100253.81;108067;1259;73607;-64
2024/02/22 01:48:54;;;;;;;77.00;39.80;;;;;;;9.41;59.34;100245.64;108054;1253;69184;-66
2024/02/22 01:51:21;;;;;;;76.30;39.40;;;;;;;9.38;59.54;100253.82;108001;1254;73033;-67
2024/02/22 01:53:49;;;;;;;70.80;37.60;;;;;;;9.32;59.80;100248.73;107490;1253;673391;-66
2024/02/22 01:58:01;;;;;;;63.20;30.90;;;;;;;8.48;63.32;100244.91;104719;1292;600988;-65
2024/02/22 02:00:28;;;;;;;70.00;37.70;;;;;;;9.46;59.65;100233.77;107178;1267;59183;-65
2024/02/22 02:02:55;;;;;;;63.00;34.30;;;;;;;9.50;59.53;100227.86;107089;1267;60197;-66
2024/02/22 02:05:21;;;;;;;61.10;31.00;;;;;;;9.70;59.06;100226.00;107198;1267;72813;-66
2024/02/22 02:07:48;;;;;;;66.60;33.30;;;;;;;9.69;59.08;100223.24;107282;1267;70273;-67
2024/02/22 02:10:15;;;;;;;57.70;31.10;;;;;;;9.73;58.86;100218.88;107218;1266;128511;-67
2024/02/22 02:12:41;;;;;;;60.50;31.30;;;;;;;9.81;58.71;100216.86;107281;1264;61100;-66
2024/02/22 02:15:08;;;;;;;63.70;31.50;;;;;;;9.84;58.37;100211.52;107360;1266;59334;-66
2024/02/22 02:17:35;;;;;;;50.40;27.80;;;;;;;9.85;58.16;100200.98;107340;1264;72119;-66
2024/02/22 02:20:04;;;;;;;53.70;28.80;;;;;;;9.69;58.13;100208.84;107359;1266;70132;-66
2024/02/22 02:23:07;;;;;;;48.20;26.20;;;;;;;9.65;58.08;100221.23;108237;1253;71854;-64
2024/02/22 02:25:34;;;;;;;52.30;27.00;;;;;;;9.69;57.96;100221.66;107745;1254;59718;-66
2024/02/22 02:28:01;;;;;;;51.60;27.90;;;;;;;9.79;57.36;100214.67;108072;1252;59489;-66
2024/02/22 02:30:27;;;;;;;51.80;26.90;;;;;;;9.91;57.10;100218.13;108089;1253;73764;-67
2024/02/22 02:32:54;;;;;;;46.10;25.40;;;;;;;9.93;56.96;100217.55;108063;1253;70741;-66
2024/02/22 02:35:21;;;;;;;54.90;29.50;;;;;;;9.75;57.33;100210.23;108206;1254;73285;-66
2024/02/22 02:37:48;;;;;;;47.70;25.20;;;;;;;9.76;57.40;100210.75;108011;1254;61073;-66
2024/02/22 02:40:14;;;;;;;48.80;25.70;;;;;;;9.88;57.06;100211.21;108113;1254;59599;-65
2024/02/22 02:42:41;;;;;;;50.10;27.30;;;;;;;9.89;56.97;100202.08;108084;1254;73622;-66
2024/02/22 02:45:08;;;;;;;42.90;22.70;;;;;;;9.89;56.95;100194.19;108069;1254;70840;-66
2024/02/22 02:47:35;;;;;;;43.20;24.10;;;;;;;9.74;57.14;100193.95;108084;1254;72639;-66
2024/02/22 02:50:02;;;;;;;48.40;24.10;;;;;;;9.73;57.20;100190.30;108141;1254;60932;-67
2024/02/22 02:52:29;;;;;;;46.50;25.50;;;;;;;9.64;57.18;100196.05;108090;1254;59073;-66
2024/02/22 02:54:56;;;;;;;43.30;24.90;;;;;;;9.77;56.95;100189.65;108110;1254;72863;-67
2024/02/22 02:57:22;;;;;;;51.70;25.80;;;;;;;9.82;56.73;100197.05;108107;1254;59442;-65
2024/02/22 02:59:51;;;;;;;51.30;27.10;;;;;;;9.64;57.09;100203.23;108080;1256;59522;-66
2024/02/22 03:02:17;;;;;;;49.60;25.20;;;;;;;9.58;57.12;100200.08;108064;1254;60874;-66
2024/02/22 03:04:44;;;;;;;44.00;24.40;;;;;;;9.46;57.36;100195.20;108219;1254;60103;-65
2024/02/22 03:07:11;;;;;;;43.20;23.50;;;;;;;9.44;57.39;100194.39;108226;1253;73214;-67
2024/02/22 03:09:37;;;;;;;48.20;25.20;;;;;;;9.34;57.94;100193.13;108088;1253;70318;-66
2024/02/22 03:12:05;;;;;;;47.20;25.40;;;;;;;9.44;57.53;100185.46;108043;1254;73370;-65
2024/02/22 03:14:33;;;;;;;43.50;23.30;;;;;;;9.51;57.48;100181.04;108093;1253;59985;-65
2024/02/22 03:16:59;;;;;;;43.40;22.90;;;;;;;9.57;57.28;100185.77;108060;1254;60139;-65
2024/02/22 03:19:26;;;;;;;39.30;23.20;;;;;;;9.57;57.20;100183.10;108056;1254;72789;-66
2024/02/22 03:21:53;;;;;;;38.40;21.30;;;;;;;9.56;57.18;100182.98;108115;1254;70364;-66
2024/02/22 03:24:20;;;;;;;41.00;22.10;;;;;;;9.59;57.02;100182.88;108031;1254;72757;-65
2024/02/22 03:26:48;;;;;;;41.20;22.40;;;;;;;9.56;57.08;100177.89;108062;1257;60847;-66
2024/02/22 03:29:15;;;;;;;43.30;23.60;;;;;;;9.51;57.23;100180.17;108133;1254;60065;-66
2024/02/22 03:31:43;;;;;;;40.70;23.10;;;;;;;9.56;57.01;100179.98;108044;1254;71830;-65
2024/02/22 03:34:09;;;;;;;45.40;24.60;;;;;;;9.46;57.33;100180.65;108097;1254;70121;-65
2024/02/22 03:36:36;;;;;;;45.60;24.30;;;;;;;9.49;57.24;100175.30;108015;1254;72873;-66
2024/02/22 03:39:04;;;;;;;49.40;24.10;;;;;;;9.45;57.34;100177.90;108167;1254;59538;-65
2024/02/22 03:41:31;;;;;;;42.40;23.40;;;;;;;9.42;57.48;100173.25;108112;1253;59074;-66
2024/02/22 03:43:59;;;;;;;43.10;23.40;;;;;;;9.44;57.40;100173.20;108092;1254;71819;-65
2024/02/22 03:46:26;;;;;;;43.70;22.90;;;;;;;9.41;57.60;100172.59;108253;1254;68923;-65
2024/02/22 03:48:53;;;;;;;43.00;22.30;;;;;;;9.33;57.88;100175.99;108044;1254;73059;-66
2024/02/22 03:51:22;;;;;;;43.60;23.80;;;;;;;9.40;57.59;100172.42;108082;1254;60984;-66
2024/02/22 03:53:49;;;;;;;43.50;22.90;;;;;;;9.38;57.55;100172.67;108027;1254;60141;-66
2024/02/22 03:56:16;;;;;;;49.30;25.70;;;;;;;9.44;57.49;100169.33;108024;1254;73192;-66
2024/02/22 03:58:43;;;;;;;45.50;25.20;;;;;;;9.52;57.32;100168.55;108179;1253;70150;-65
2024/02/22 04:01:11;;;;;;;42.00;22.20;;;;;;;9.32;57.70;100169.36;108107;1254;73250;-67
2024/02/22 04:03:38;;;;;;;44.40;24.40;;;;;;;9.25;57.95;100168.52;108111;1254;61035;-66
2024/02/22 04:06:06;;;;;;;39.20;20.80;;;;;;;9.24;58.00;100170.83;108093;1254;60220;-66
2024/02/22 04:08:33;;;;;;;40.20;22.40;;;;;;;9.35;57.86;100163.85;108105;1255;73719;-66
2024/02/22 04:10:59;;;;;;;48.20;25.20;;;;;;;9.37;57.89;100163.24;108019;1256;68236;-66
2024/02/22 04:13:27;;;;;;;43.10;23.20;;;;;;;9.42;57.98;100162.91;107971;1254;72451;-65
2024/02/22 04:15:53;;;;;;;43.00;24.10;;;;;;;9.48;57.68;100166.77;108099;1254;59598;-66
2024/02/22 04:18:20;;;;;;;39.50;22.00;;;;;;;9.43;57.56;100169.90;108011;1254;59552;-65
2024/02/22 04:20:47;;;;;;;41.90;23.70;;;;;;;9.35;57.46;100170.31;108079;1254;73586;-65
2024/02/22 04:23:13;;;;;;;44.40;24.60;;;;;;;9.25;57.58;100172.04;108140;1254;70747;-65
2024/02/22 04:25:41;;;;;;;43.70;23.00;;;;;;;9.27;57.49;100170.58;108037;1254;72548;-66
2024/02/22 04:28:08;;;;;;;43.50;23.90;;;;;;;9.28;57.39;100171.42;108045;1254;61816;-66
2024/02/22 04:30:35;;;;;;;43.20;24.40;;;;;;;9.35;57.20;100171.17;108106;1254;60194;-67
2024/02/22 04:33:03;;;;;;;40.00;22.20;;;;;;;9.42;57.11;100168.19;108104;1257;73534;-67
2024/02/22 04:35:30;;;;;;;52.50;28.20;;;;;;;9.41;57.14;100170.48;108151;1253;70206;-66
2024/02/22 04:37:56;;;;;;;47.80;25.80;;;;;;;9.36;57.65;100170.98;108136;1253;72495;-67
2024/02/22 04:40:23;;;;;;;51.50;28.90;;;;;;;9.35;57.83;100170.83;108210;1253;59905;-66
2024/02/22 04:42:50;;;;;;;59.30;30.60;;;;;;;9.19;58.23;100171.33;108286;1253;60330;-65
2024/02/22 04:45:17;;;;;;;52.20;27.40;;;;;;;9.11;58.75;100172.29;108246;1253;73632;-66
2024/02/22 04:47:46;;;;;;;58.60;32.10;;;;;;;9.13;58.92;100175.88;108261;1253;69768;-66
2024/02/22 04:50:14;;;;;;;57.80;30.20;;;;;;;9.11;59.11;100178.41;108234;1253;72708;-66
2024/02/22 04:52:40;;;;;;;53.80;28.50;;;;;;;9.20;58.88;100177.61;108212;1253;61040;-66
2024/02/22 04:55:08;;;;;;;61.20;32.90;;;;;;;9.17;59.13;100183.49;108282;1253;60282;-65
2024/02/22 04:57:34;;;;;;;52.80;27.50;;;;;;;9.12;59.27;100184.17;108304;1253;71815;-67
2024/02/22 05:00:04;;;;;;;67.00;33.80;;;;;;;9.20;59.14;100187.08;108274;1253;70020;-66
2024/02/22 05:02:31;;;;;;;62.20;31.50;;;;;;;9.21;59.09;100186.16;108207;1253;73104;-67
2024/02/22 05:04:58;;;;;;;58.50;32.10;;;;;;;9.24;59.11;100189.58;108311;1253;59618;-66
2024/02/22 05:07:25;;;;;;;58.80;31.20;;;;;;;9.22;59.05;100193.16;108272;1252;61980;-66
2024/02/22 05:09:52;;;;;;;48.00;27.00;;;;;;;9.35;58.84;100195.38;108192;1253;72022;-67
2024/02/22 05:12:19;;;;;;;61.50;32.70;;;;;;;9.35;58.77;100199.23;108189;1253;70551;-67
2024/02/22 05:14:47;;;;;;;61.10;32.20;;;;;;;9.28;58.97;100194.55;108259;1254;73051;-66
2024/02/22 05:17:13;;;;;;;65.30;33.50;;;;;;;9.34;58.87;100194.68;108214;1254;60993;-64
2024/02/22 05:19:41;;;;;;;70.60;36.70;;;;;;;9.31;59.00;100190.23;108182;1253;60152;-65
2024/02/22 05:22:08;;;;;;;53.20;28.50;;;;;;;9.29;59.24;100188.55;108277;1253;72801;-66
2024/02/22 05:24:35;;;;;;;66.00;32.80;;;;;;;9.42;58.99;100184.98;108202;1256;68940;-66
2024/02/22 05:27:01;;;;;;;71.60;34.70;;;;;;;9.49;59.03;100182.51;108167;1256;72513;-64
2024/02/22 05:29:28;;;;;;;51.00;28.90;;;;;;;9.45;59.42;100180.01;108291;1254;60846;-64
2024/02/22 05:31:58;;;;;;;64.20;32.70;;;;;;;9.53;59.25;100176.58;108254;1253;60039;-67
2024/02/22 05:34:26;;;;;;;66.30;34.70;;;;;;;9.64;59.36;100174.33;108121;1253;73624;-66
2024/02/22 05:36:54;;;;;;;49.90;27.10;;;;;;;9.68;59.31;100173.81;108071;1254;70912;-66
2024/02/22 05:39:21;;;;;;;52.40;27.90;;;;;;;9.68;59.54;100177.84;108024;1254;73122;-67
2024/02/22 05:41:48;;;;;;;52.60;26.40;;;;;;;9.73;59.67;100177.17;108048;1254;61040;-66
2024/02/22 05:44:18;;;;;;;61.70;32.20;;;;;;;9.91;59.39;100173.23;108143;1254;59501;-66
2024/02/22 05:46:45;;;;;;;57.10;30.50;;;;;;;9.94;59.27;100173.69;108112;1257;73483;-66
2024/02/22 05:49:11;;;;;;;48.50;26.60;;;;;;;9.85;59.55;100170.11;108084;1254;70242;-66
2024/02/22 05:51:38;;;;;;;74.50;37.10;;;;;;;9.80;59.65;100169.55;108070;1254;72700;-67
2024/02/22 05:54:07;;;;;;;55.30;28.30;;;;;;;9.87;59.40;100170.55;108073;1254;60109;-66
2024/02/22 05:56:35;;;;;;;59.90;32.80;;;;;;;9.91;59.34;100166.39;108056;1254;60111;-66
2024/02/22 05:59:02;;;;;;;73.70;36.90;;;;;;;10.05;59.06;100166.46;108014;1254;73348;-65
2024/02/22 06:01:29;;;;;;;53.90;30.10;;;;;;;10.02;59.03;100171.30;108178;1257;70257;-67
2024/02/22 06:03:55;;;;;;;67.30;35.20;;;;;;;10.07;59.07;100167.61;108060;1254;70553;-66
2024/02/22 06:06:22;;;;;;;49.90;27.40;;;;;;;10.19;58.90;100170.69;108069;1254;60390;-66
2024/02/22 06:08:49;;;;;;;56.60;30.30;;;;;;;10.25;58.83;100171.55;108031;1254;60398;-66
2024/02/22 06:11:17;;;;;;;61.40;33.60;;;;;;;10.28;58.71;100168.64;107996;1254;73565;-66
2024/02/22 06:13:44;;;;;;;53.10;28.80;;;;;;;10.34;58.63;100170.02;108088;1255;70361;-66
2024/02/22 06:16:10;;;;;;;59.00;32.10;;;;;;;10.40;58.41;100172.28;108079;1255;72370;-67
2024/02/22 06:18:37;;;;;;;58.20;31.80;;;;;;;10.36;58.35;100172.61;108098;1254;60348;-64
2024/02/22 06:21:06;;;;;;;57.90;31.40;;;;;;;10.20;58.71;100171.02;108142;1254;60394;-68
2024/02/22 06:23:34;;;;;;;63.40;32.60;;;;;;;10.23;58.72;100167.77;108065;1254;73629;-67
2024/02/22 06:26:00;;;;;;;56.90;31.40;;;;;;;10.23;58.88;100164.96;108073;1254;69096;-67
2024/02/22 06:28:27;;;;;;;58.80;32.70;;;;;;;10.28;58.95;100162.68;108057;1255;73227;-64
2024/02/22 06:30:53;;;;;;;56.00;31.30;;;;;;;10.30;58.95;100162.80;108159;1254;60981;-67
2024/02/22 06:33:22;;;;;;;53.90;29.10;;;;;;;10.36;59.02;100163.84;108241;1252;60431;-66
2024/02/22 06:35:49;;;;;;;55.60;32.80;;;;;;;10.28;59.22;100159.71;108346;1252;72529;-67
2024/02/22 06:38:16;;;;;;;53.70;29.60;;;;;;;10.14;59.87;100161.06;108345;1253;70356;-66
2024/02/22 06:40:49;;;;;;;58.20;32.20;;;;;;;10.28;59.35;100158.63;108290;1254;73704;-67
2024/02/22 06:43:19;;;;;;;54.50;28.80;;;;;;;10.32;59.36;100155.73;108241;1253;61128;-67
2024/02/22 06:45:46;;;;;;;55.30;30.00;;;;;;;10.31;59.51;100156.29;108239;1253;60425;-67
2024/02/22 06:48:13;;;;;;;62.30;34.50;;;;;;;10.15;59.89;100155.22;108226;1254;73597;-65
2024/02/22 06:50:40;;;;;;;56.20;31.20;;;;;;;10.25;59.86;100153.50;108201;1254;70850;-67
2024/02/22 06:53:06;;;;;;;53.70;29.20;;;;;;;10.35;59.61;100154.55;108221;1253;71673;-66
2024/02/22 06:55:33;;;;;;;61.70;34.10;;;;;;;10.53;59.21;100152.33;108276;1253;61382;-66
2024/02/22 06:58:01;;;;;;;57.80;31.00;;;;;;;10.58;59.26;100151.96;108278;1253;60411;-66
2024/02/22 07:00:29;;;;;;;52.30;29.60;;;;;;;10.71;58.83;100152.52;108297;1253;74362;-67
2024/02/22 07:02:56;;;;;;;61.50;30.30;;;;;;;10.74;58.85;100150.88;108174;1254;69473;-67
2024/02/22 07:05:23;;;;;;;55.30;30.10;;;;;;;10.58;59.21;100152.33;108233;1252;73308;-67
2024/02/22 07:07:50;;;;;;;56.20;29.40;;;;;;;10.53;59.17;100144.27;108286;1252;61288;-65
2024/02/22 07:10:16;;;;;;;56.80;30.40;;;;;;;10.57;59.38;100141.84;108219;1254;60356;-66
2024/02/22 07:12:46;;;;;;;59.20;31.70;;;;;;;10.63;59.19;100140.73;108239;1253;73532;-66
2024/02/22 07:15:12;;;;;;;60.40;34.20;;;;;;;10.69;59.13;100134.71;108323;1253;70162;-67
2024/02/22 07:17:39;;;;;;;64.90;34.00;;;;;;;10.62;59.30;100137.42;108279;1253;71767;-67
2024/02/22 07:20:08;;;;;;;66.50;34.10;;;;;;;10.64;59.39;100135.77;108323;1253;61278;-65
2024/02/22 07:22:35;;;;;;;61.20;33.80;;;;;;;10.52;59.97;100134.30;108313;1253;60280;-66
2024/02/22 07:25:02;;;;;;;58.50;32.00;;;;;;;10.66;59.77;100135.67;108182;1253;73051;-66
2024/02/22 07:27:29;;;;;;;67.90;35.40;;;;;;;10.76;59.62;100136.73;108215;1253;70691;-67
2024/02/22 07:29:56;;;;;;;61.50;33.10;;;;;;;10.93;59.21;100135.02;108262;1253;72486;-67
2024/02/22 07:32:22;;;;;;;67.90;36.70;;;;;;;10.91;59.48;100134.91;108284;1253;60926;-67
2024/02/22 07:34:49;;;;;;;64.30;34.80;;;;;;;10.93;59.74;100138.39;108129;1253;60405;-67
2024/02/22 07:37:19;;;;;;;61.50;33.70;;;;;;;11.00;59.81;100134.39;108023;1254;73900;-67
2024/02/22 07:39:45;;;;;;;62.30;34.20;;;;;;;11.16;59.66;100134.87;108033;1255;69260;-65
2024/02/22 07:42:12;;;;;;;55.30;32.20;;;;;;;11.33;59.40;100134.15;108089;1254;71417;-66
2024/02/22 07:44:43;;;;;;;66.20;36.00;;;;;;;11.54;58.81;100132.26;108009;1255;61411;-67
2024/02/22 07:47:11;;;;;;;65.20;31.90;;;;;;;11.68;58.64;100132.23;108087;1257;61349;-66
2024/02/22 07:49:39;;;;;;;56.50;31.80;;;;;;;11.67;59.10;100131.39;108088;1254;72521;-67
2024/02/22 07:52:06;;;;;;;62.80;35.00;;;;;;;11.92;58.52;100128.59;108057;1254;70002;-67
2024/02/22 07:54:33;;;;;;;57.30;31.70;;;;;;;11.91;58.38;100128.46;107974;1254;73466;-67
2024/02/22 07:56:59;;;;;;;58.20;32.90;;;;;;;12.14;57.72;100130.48;108019;1254;60322;-67
2024/02/22 07:59:26;;;;;;;61.10;34.20;;;;;;;12.26;57.52;100127.13;108036;1254;60172;-67
2024/02/22 08:01:53;;;;;;;53.80;32.00;;;;;;;12.32;57.37;100126.67;108056;1254;72693;-67
2024/02/22 08:04:26;;;;;;;62.70;34.60;;;;;;;12.73;57.06;100125.20;108085;1254;70367;-67
2024/02/22 08:06:53;;;;;;;56.60;29.90;;;;;;;13.10;55.90;100123.65;108045;1254;73904;-67
2024/02/22 08:09:20;;;;;;;51.00;28.50;;;;;;;13.22;55.21;100119.56;108043;1254;62149;-67
2024/02/22 08:11:46;;;;;;;55.40;31.40;;;;;;;13.40;54.37;100119.80;108094;1254;60423;-67
2024/02/22 08:14:14;;;;;;;50.70;29.80;;;;;;;13.40;53.94;100120.68;108027;1254;72825;-67
2024/02/22 08:16:40;;;;;;;55.00;31.70;;;;;;;13.35;53.84;100118.08;108102;1254;70210;-68
2024/02/22 08:19:08;;;;;;;61.90;33.50;;;;;;;13.27;53.66;100119.52;108016;1257;72576;-66
2024/02/22 08:21:35;;;;;;;46.40;27.50;;;;;;;13.22;54.09;100112.68;108010;1254;61581;-67
2024/02/22 08:24:02;;;;;;;55.90;31.90;;;;;;;13.23;53.90;100107.90;108041;1254;60410;-67
2024/02/22 08:26:29;;;;;;;55.90;32.30;;;;;;;13.09;54.33;100104.16;108017;1254;73822;-68
2024/02/22 08:28:56;;;;;;;53.80;29.90;;;;;;;13.31;53.88;100096.25;108081;1254;69183;-68
2024/02/22 08:31:24;;;;;;;55.10;30.90;;;;;;;13.11;54.14;100101.27;108146;1253;72534;-67
2024/02/22 08:33:50;;;;;;;54.00;31.30;;;;;;;12.72;54.84;100098.49;108031;1254;61978;-67
2024/02/22 08:36:17;;;;;;;54.60;30.50;;;;;;;12.71;54.82;100097.81;108115;1254;60733;-67
2024/02/22 08:38:44;;;;;;;53.30;30.10;;;;;;;12.93;54.48;100088.50;108042;1254;73103;-68
2024/02/22 08:41:11;;;;;;;51.20;29.60;;;;;;;12.95;54.81;100088.61;108109;1255;70428;-66
2024/02/22 08:43:39;;;;;;;57.30;29.40;;;;;;;13.23;54.02;100088.86;108050;1254;71559;-67
2024/02/22 08:46:06;;;;;;;58.00;32.10;;;;;;;13.21;54.32;100089.13;108067;1254;60318;-67
2024/02/22 08:48:33;;;;;;;56.70;30.90;;;;;;;13.29;53.98;100088.73;108080;1254;60525;-67
2024/02/22 08:51:00;;;;;;;63.60;32.20;;;;;;;13.33;53.79;100092.80;108025;1254;73003;-67
2024/02/22 08:53:26;;;;;;;57.50;34.10;;;;;;;13.25;53.83;100087.67;108137;1254;70416;-67
2024/02/22 08:55:53;;;;;;;57.80;33.60;;;;;;;13.45;53.43;100084.59;108049;1254;71428;-67
2024/02/22 08:58:25;;;;;;;58.20;28.30;;;;;;;13.52;53.60;100087.09;108025;1254;61369;-67
2024/02/22 09:00:51;;;;;;;52.70;29.90;;;;;;;13.43;53.25;100086.11;108012;1254;61368;-66
2024/02/22 09:03:18;;;;;;;58.90;30.60;;;;;;;13.56;53.00;100087.10;108064;1254;73913;-65
2024/02/22 09:05:45;;;;;;;51.00;29.90;;;;;;;13.44;52.98;100087.30;108105;1256;70225;-65
2024/02/22 09:08:12;;;;;;;56.30;31.10;;;;;;;13.66;52.69;100080.58;108029;1254;71854;-66
2024/02/22 09:10:39;;;;;;;52.30;31.60;;;;;;;13.91;52.17;100078.77;107950;1254;62356;-67
2024/02/22 09:13:06;;;;;;;53.60;29.80;;;;;;;14.15;51.96;100073.65;108022;1254;59141;-66
2024/02/22 09:15:33;;;;;;;52.90;31.00;;;;;;;14.22;51.37;100070.08;107992;1255;73876;-67
2024/02/22 09:18:00;;;;;;;49.50;30.30;;;;;;;14.60;50.84;100070.73;108060;1254;70985;-67
2024/02/22 09:20:27;;;;;;;53.20;29.90;;;;;;;14.94;49.63;100066.39;108000;1254;72595;-66
2024/02/22 09:22:54;;;;;;;54.30;29.90;;;;;;;15.26;49.28;100063.50;108093;1257;60992;-67
2024/02/22 09:25:22;;;;;;;49.70;29.10;;;;;;;15.47;48.38;100061.05;108019;1256;60511;-66
2024/02/22 09:27:48;;;;;;;54.40;30.50;;;;;;;15.63;47.53;100061.20;108001;1254;72902;-66
2024/02/22 09:30:15;;;;;;;47.00;27.10;;;;;;;15.90;47.24;100054.45;108034;1255;68421;-67
2024/02/22 09:32:42;;;;;;;53.90;27.60;;;;;;;16.34;46.16;100053.72;107975;1254;72710;-67
2024/02/22 09:35:11;;;;;;;47.10;28.00;;;;;;;16.73;45.11;100048.30;108170;1253;62648;-66
2024/02/22 09:37:37;;;;;;;48.60;28.90;;;;;;;17.02;44.70;100045.38;108217;1252;60456;-66
2024/02/22 09:40:05;;;;;;;48.50;29.20;;;;;;;16.70;44.50;100050.21;108200;1253;72694;-67
2024/02/22 09:42:32;;;;;;;44.90;27.10;;;;;;;16.37;44.68;100049.67;108064;1256;70213;-67
2024/02/22 09:44:59;;;;;;;52.30;29.20;;;;;;;16.02;45.94;100054.45;108019;1254;72177;-68
2024/02/22 09:47:26;;;;;;;46.30;27.80;;;;;;;16.18;45.83;100049.93;108093;1254;60929;-67
2024/02/22 09:49:54;;;;;;;44.40;26.50;;;;;;;16.22;45.55;100044.03;108092;1258;60341;-67
2024/02/22 09:52:21;;;;;;;52.20;30.10;;;;;;;16.27;45.45;100043.34;108062;1256;73718;-66
2024/02/22 09:54:48;;;;;;;52.70;30.30;;;;;;;16.42;45.43;100038.89;108053;1254;70290;-66
2024/02/22 09:57:15;;;;;;;48.70;28.90;;;;;;;16.30;45.34;100035.20;108060;1254;72653;-67
2024/02/22 09:59:51;;;;;;;52.90;31.10;;;;;;;16.15;45.27;100034.05;108047;1256;62573;-67
2024/02/22 10:02:22;;;;;;;50.70;28.90;;;;;;;16.37;45.63;100025.88;108148;1256;60448;-67
2024/02/22 10:04:50;;;;;;;52.10;30.70;;;;;;;16.98;44.29;100023.80;108124;1254;74707;-67
2024/02/22 10:07:35;;;;;;;47.70;28.30;;;;;;;17.71;42.81;100017.69;108057;1255;70262;-67
2024/02/22 10:10:02;;;;;;;49.50;28.90;;;;;;;18.47;41.83;100012.23;108042;1254;70670;-67
2024/02/22 10:12:32;;;;;;;47.40;28.20;;;;;;;18.90;40.58;100008.99;107980;1256;60216;-68
2024/02/22 10:14:59;;;;;;;46.80;27.40;;;;;;;19.14;39.74;100004.86;108041;1254;60575;-68
2024/02/22 10:17:33;;;;;;;41.80;26.30;;;;;;;19.16;39.39;99999.59;108074;1254;74331;-67
2024/02/22 10:20:09;;;;;;;45.20;28.20;;;;;;;19.62;38.85;99998.40;108088;1256;69086;-70
2024/02/22 10:22:37;;;;;;;43.80;26.20;;;;;;;20.07;38.23;99993.38;108065;1256;73490;-67
2024/02/22 10:25:08;;;;;;;38.10;24.30;;;;;;;20.11;37.64;99997.30;108048;1257;61467;-67
2024/02/22 10:27:36;;;;;;;41.50;24.40;;;;;;;20.25;37.26;99988.16;108045;1254;61455;-67
2024/02/22 10:30:09;;;;;;;39.60;24.70;;;;;;;19.93;37.15;99988.90;108020;1254;72023;-68
2024/02/22 10:32:40;;;;;;;44.00;25.30;;;;;;;19.59;37.70;99986.02;108018;1254;70195;-68
2024/02/22 10:35:11;;;;;;;42.70;26.20;;;;;;;19.08;38.34;99978.63;108175;1254;72593;-68
2024/02/22 10:37:38;;;;;;;41.10;27.00;;;;;;;18.55;39.28;99978.58;108131;1253;60620;-68
2024/02/22 10:40:05;;;;;;;44.70;26.70;;;;;;;18.28;39.70;99976.60;108170;1254;60325;-68
2024/02/22 10:42:33;;;;;;;41.80;25.60;;;;;;;18.03;40.15;99972.73;108028;1259;73782;-66
2024/02/22 10:45:00;;;;;;;38.90;24.10;;;;;;;17.65;40.92;99974.80;108223;1254;70360;-67
2024/02/22 10:47:27;;;;;;;44.40;25.50;;;;;;;17.44;41.19;99979.05;108260;1253;72769;-68
2024/02/22 10:49:56;;;;;;;48.70;25.20;;;;;;;17.29;41.76;99977.09;108039;1257;60379;-66
2024/02/22 10:52:27;;;;;;;47.50;26.00;;;;;;;17.12;42.37;99975.05;108241;1253;61057;-68
2024/02/22 10:54:58;;;;;;;47.90;26.00;;;;;;;17.18;42.29;99973.89;108187;1254;75008;-68
2024/02/22 10:57:27;;;;;;;48.60;27.20;;;;;;;16.62;43.46;99978.95;108343;1254;70520;-69
2024/02/22 10:59:54;;;;;;;49.90;27.90;;;;;;;16.66;43.54;99971.06;107985;1256;72683;-68
2024/02/22 11:02:21;;;;;;;48.20;27.50;;;;;;;16.72;43.58;99971.22;107998;1254;60194;-68
2024/02/22 11:04:48;;;;;;;47.80;25.80;;;;;;;16.69;43.77;99971.09;108215;1253;60463;-67
2024/02/22 11:07:18;;;;;;;50.20;27.80;;;;;;;16.53;43.82;99971.59;108252;1253;73809;-66
2024/02/22 11:09:46;;;;;;;51.70;29.60;;;;;;;16.13;44.78;99972.66;108248;1256;69382;-66